Alabama Hills, California
Current Conditions -  °F | °C
As of 12:56 PM on Thursday 23 Oct 2014 (Local Time) from KBIH Reporting Station
Clear Clear  
Wind Chill: 70°   Ceiling: Unl
Heat Index: 70°   Visibility: 10mi
Dew Point: 25°   Wind: 6mph
Humidity: 18%   Direction: NA
Pressure: 30.09"   Gusts: NA
Location:  36.6126°N, 118.162°W
Report Text: KBIH 231956Z AUTO VRB05KT 10SM CLR 21/M04 A3009 RMK AO2 SLP159 T02111039
Loading
Personal Weather Stations






























Interactive Weather Map
Tropical Storm Tracking
New forecast layout! Learn more

10-Day Weather Forecast

Advertisements
Track Severe Weather on mobile